Time;durP1;ratioP1;P1;durP2;ratioP2;P2;SDS_P1;SDS_P2;PMS_P1;PMS_P2;Temp;Humidity;BMP_temperature;BMP_pressure;BME280_temperature;BME280_humidity;BME280_pressure;Samples;Min_cycle;Max_cycle;Signal;HPM_P1;HPM_P2
2022/11/14 00:02:02;;;;;;;;;;;27.10;76.40;;;;;;5069950;28;19935;-73
2022/11/14 00:04:28;;;;;;;;;;;27.10;76.30;;;;;;5064085;28;20362;-73
2022/11/14 00:06:55;;;;;;;;;;;26.90;76.70;;;;;;5068665;28;19917;-73
2022/11/14 00:09:25;;;;;;;;;;;26.80;78.10;;;;;;5066073;28;19924;-74
2022/11/14 00:11:52;;;;;;;;;;;26.90;79.10;;;;;;5067696;28;20007;-75
2022/11/14 00:14:18;;;;;;;;;;;26.90;77.20;;;;;;5063928;28;19912;-74
2022/11/14 00:16:45;;;;;;;;;;;27.00;76.90;;;;;;5070458;28;19920;-74
2022/11/14 00:19:12;;;;;;;;;;;27.30;77.90;;;;;;5051555;28;20377;-75
2022/11/14 00:21:39;;;;;;;;;;;27.70;78.00;;;;;;5066896;28;19928;-74
2022/11/14 00:24:05;;;;;;;;;;;27.50;76.60;;;;;;5058655;28;19913;-74
2022/11/14 00:26:32;;;;;;;;;;;27.30;77.20;;;;;;5048985;28;20462;-75
2022/11/14 00:28:59;;;;;;;;;;;27.40;78.70;;;;;;5067757;28;19927;-74
2022/11/14 00:31:26;;;;;;;;;;;27.70;77.10;;;;;;5069355;28;19917;-80
2022/11/14 00:33:52;;;;;;;;;;;27.90;77.40;;;;;;5035935;28;19917;-76
2022/11/14 00:36:19;;;;;;;;;;;28.10;77.00;;;;;;5056619;28;19931;-74
2022/11/14 00:38:46;;;;;;;;;;;28.30;77.30;;;;;;5068524;28;19912;-77
2022/11/14 00:41:12;;;;;;;;;;;28.40;75.40;;;;;;5069205;28;19950;-76
2022/11/14 00:43:39;;;;;;;;;;;28.40;75.50;;;;;;5064758;28;19923;-75
2022/11/14 00:46:06;;;;;;;;;;;28.40;74.20;;;;;;5067885;28;20327;-75
2022/11/14 00:48:32;;;;;;;;;;;28.30;74.40;;;;;;5060478;28;19913;-74
2022/11/14 00:50:59;;;;;;;;;;;28.30;74.00;;;;;;5066234;28;20814;-74
2022/11/14 00:53:26;;;;;;;;;;;28.40;74.10;;;;;;5069644;28;20321;-74
2022/11/14 00:55:52;;;;;;;;;;;28.40;72.10;;;;;;5068713;28;19912;-78
2022/11/14 00:58:19;;;;;;;;;;;28.10;74.50;;;;;;5069074;28;20367;-77
2022/11/14 01:00:46;;;;;;;;;;;28.10;74.20;;;;;;5068875;28;19924;-78
2022/11/14 01:03:12;;;;;;;;;;;28.30;75.20;;;;;;5066267;28;19916;-74
2022/11/14 01:05:47;;;;;;;;;;;28.60;75.00;;;;;;5069644;28;19912;-74
2022/11/14 01:08:14;;;;;;;;;;;28.50;73.70;;;;;;5069879;28;19955;-74
2022/11/14 01:10:42;;;;;;;;;;;28.30;73.70;;;;;;5068099;28;19963;-74
2022/11/14 01:13:09;;;;;;;;;;;28.10;74.30;;;;;;5061373;28;19967;-74
2022/11/14 01:15:40;;;;;;;;;;;28.00;75.30;;;;;;5068468;28;19932;-74
2022/11/14 01:18:06;;;;;;;;;;;28.30;73.40;;;;;;5068227;28;20031;-74
2022/11/14 01:20:33;;;;;;;;;;;28.70;75.00;;;;;;5067421;28;19923;-75
2022/11/14 01:23:00;;;;;;;;;;;29.10;73.80;;;;;;5069761;28;20047;-73
2022/11/14 01:25:26;;;;;;;;;;;29.40;76.20;;;;;;5067693;28;20342;-75
2022/11/14 01:27:53;;;;;;;;;;;29.70;75.50;;;;;;5068177;28;19913;-72
2022/11/14 01:30:19;;;;;;;;;;;29.60;74.00;;;;;;5070428;28;19916;-74
2022/11/14 01:32:46;;;;;;;;;;;29.70;73.10;;;;;;5068358;28;19913;-74
2022/11/14 01:35:13;;;;;;;;;;;29.70;72.80;;;;;;5068948;28;19954;-75
2022/11/14 01:37:39;;;;;;;;;;;29.30;72.20;;;;;;5064902;28;20343;-74
2022/11/14 01:40:06;;;;;;;;;;;29.20;72.60;;;;;;5071451;28;19926;-74
2022/11/14 01:42:33;;;;;;;;;;;29.30;72.90;;;;;;5073742;28;19928;-73
2022/11/14 01:45:00;;;;;;;;;;;28.90;71.70;;;;;;5069532;28;20290;-76
2022/11/14 01:47:28;;;;;;;;;;;28.80;71.70;;;;;;5071463;28;19920;-75
2022/11/14 01:49:58;;;;;;;;;;;29.00;73.00;;;;;;5071036;28;19947;-77
2022/11/14 01:52:29;;;;;;;;;;;29.30;72.50;;;;;;5073235;28;19920;-76
2022/11/14 01:54:57;;;;;;;;;;;29.60;72.70;;;;;;5070813;28;19919;-77
2022/11/14 01:57:45;;;;;;;;;;;29.60;69.90;;;;;;5075434;28;19923;-75
2022/11/14 02:00:12;;;;;;;;;;;29.30;69.30;;;;;;5060324;28;19913;-73
2022/11/14 02:02:39;;;;;;;;;;;29.50;71.30;;;;;;5073377;28;19912;-76
2022/11/14 02:05:07;;;;;;;;;;;29.70;70.80;;;;;;5064730;28;19912;-76
2022/11/14 02:07:36;;;;;;;;;;;29.70;70.90;;;;;;5071537;28;19916;-75
2022/11/14 02:10:05;;;;;;;;;;;29.90;71.50;;;;;;5066486;28;19917;-76
2022/11/14 02:12:32;;;;;;;;;;;30.00;70.60;;;;;;5068307;28;19915;-73
2022/11/14 02:15:00;;;;;;;;;;;29.80;69.40;;;;;;5069417;28;19916;-74
2022/11/14 02:17:27;;;;;;;;;;;29.60;70.20;;;;;;5060818;28;20309;-73
2022/11/14 02:19:56;;;;;;;;;;;29.50;70.10;;;;;;5064949;28;19935;-74
2022/11/14 02:22:23;;;;;;;;;;;29.20;69.40;;;;;;5071688;28;20003;-73
2022/11/14 02:24:50;;;;;;;;;;;28.80;69.60;;;;;;5066903;28;19916;-73
2022/11/14 02:27:16;;;;;;;;;;;28.40;70.40;;;;;;5071928;28;19913;-74
2022/11/14 02:29:43;;;;;;;;;;;28.00;71.10;;;;;;5068213;28;19913;-73
2022/11/14 02:32:10;;;;;;;;;;;28.10;71.20;;;;;;5060172;28;19943;-75
2022/11/14 02:34:36;;;;;;;;;;;28.90;72.60;;;;;;5072790;28;19913;-74
2022/11/14 02:37:03;;;;;;;;;;;29.40;71.30;;;;;;5068095;28;20351;-76
2022/11/14 02:39:30;;;;;;;;;;;29.40;70.00;;;;;;5063243;28;20278;-78
2022/11/14 02:41:56;;;;;;;;;;;29.40;68.70;;;;;;5061810;28;19924;-75
2022/11/14 02:44:23;;;;;;;;;;;29.30;70.10;;;;;;5060784;28;19948;-74
2022/11/14 02:46:49;;;;;;;;;;;29.40;69.60;;;;;;5062670;28;19912;-73
2022/11/14 02:49:16;;;;;;;;;;;29.30;70.10;;;;;;5064125;28;19939;-75
2022/11/14 02:51:43;;;;;;;;;;;29.40;70.20;;;;;;5062488;28;19966;-74
2022/11/14 02:54:09;;;;;;;;;;;29.70;70.20;;;;;;5065802;28;19916;-75
2022/11/14 02:56:36;;;;;;;;;;;29.90;71.30;;;;;;5063677;28;19916;-72
2022/11/14 02:59:03;;;;;;;;;;;30.20;70.50;;;;;;5061500;28;19912;-73
2022/11/14 03:01:29;;;;;;;;;;;30.20;71.70;;;;;;5069542;28;19923;-73
2022/11/14 03:03:56;;;;;;;;;;;30.30;71.80;;;;;;5071803;28;19912;-73
2022/11/14 03:06:23;;;;;;;;;;;30.40;72.20;;;;;;5067645;28;19912;-73
2022/11/14 03:08:49;;;;;;;;;;;30.40;73.00;;;;;;5068015;28;19959;-73
2022/11/14 03:11:16;;;;;;;;;;;30.50;74.30;;;;;;5071259;28;19916;-74
2022/11/14 03:13:43;;;;;;;;;;;30.70;74.30;;;;;;5055189;28;19920;-74
2022/11/14 03:16:11;;;;;;;;;;;30.70;72.30;;;;;;5059159;28;19973;-73
2022/11/14 03:18:37;;;;;;;;;;;30.30;72.90;;;;;;5063181;28;20302;-75
2022/11/14 03:21:11;;;;;;;;;;;30.30;73.00;;;;;;5057770;28;19920;-74
2022/11/14 03:23:38;;;;;;;;;;;30.50;73.30;;;;;;5068646;28;20380;-73
2022/11/14 03:26:06;;;;;;;;;;;30.50;72.20;;;;;;5063034;28;19920;-73
2022/11/14 03:28:33;;;;;;;;;;;30.10;73.00;;;;;;5062059;28;19931;-74
2022/11/14 03:30:59;;;;;;;;;;;29.80;71.50;;;;;;5063026;28;19917;-78
2022/11/14 03:33:26;;;;;;;;;;;29.30;71.80;;;;;;5063082;28;19958;-74
2022/11/14 03:35:53;;;;;;;;;;;29.00;73.10;;;;;;5065742;28;19966;-73
2022/11/14 03:38:23;;;;;;;;;;;29.00;74.70;;;;;;5064251;28;19959;-73
2022/11/14 03:40:50;;;;;;;;;;;28.90;75.80;;;;;;5053099;28;19975;-74
2022/11/14 03:43:18;;;;;;;;;;;28.60;74.70;;;;;;5055944;28;19930;-75
2022/11/14 03:45:44;;;;;;;;;;;28.70;75.10;;;;;;5063678;28;19916;-74
2022/11/14 03:48:12;;;;;;;;;;;28.30;75.10;;;;;;5066647;28;20251;-74
2022/11/14 03:50:38;;;;;;;;;;;28.30;76.10;;;;;;5062030;28;19920;-72
2022/11/14 03:53:05;;;;;;;;;;;28.50;75.20;;;;;;5064072;28;20007;-75
2022/11/14 03:55:32;;;;;;;;;;;28.80;76.00;;;;;;5063746;28;19912;-74
2022/11/14 03:57:59;;;;;;;;;;;29.10;74.00;;;;;;5064180;28;19912;-74
2022/11/14 04:00:27;;;;;;;;;;;29.10;73.20;;;;;;5069467;28;19916;-75
2022/11/14 04:02:54;;;;;;;;;;;29.00;73.00;;;;;;5063621;28;19916;-74
2022/11/14 04:05:21;;;;;;;;;;;29.00;71.70;;;;;;5065311;28;20262;-73
2022/11/14 04:07:48;;;;;;;;;;;29.00;71.90;;;;;;5061985;28;19916;-75
2022/11/14 04:10:15;;;;;;;;;;;28.80;69.40;;;;;;5062744;28;19962;-75
2022/11/14 04:12:46;;;;;;;;;;;28.50;71.00;;;;;;5063452;28;19982;-75
2022/11/14 04:15:12;;;;;;;;;;;28.30;71.40;;;;;;5062083;28;20115;-76
2022/11/14 04:17:39;;;;;;;;;;;28.10;72.90;;;;;;5066559;28;19919;-73
2022/11/14 04:20:06;;;;;;;;;;;27.90;72.60;;;;;;5067733;28;20029;-76
2022/11/14 04:22:33;;;;;;;;;;;27.40;73.40;;;;;;5071256;28;19932;-74
2022/11/14 04:24:59;;;;;;;;;;;27.00;73.70;;;;;;5067425;28;20042;-74
2022/11/14 04:27:26;;;;;;;;;;;26.90;75.10;;;;;;5066468;28;19980;-73
2022/11/14 04:29:52;;;;;;;;;;;27.40;75.00;;;;;;5064201;28;19944;-75
2022/11/14 04:32:19;;;;;;;;;;;27.70;75.60;;;;;;5065889;28;19909;-75
2022/11/14 04:34:46;;;;;;;;;;;27.70;74.80;;;;;;5067725;28;20366;-73
2022/11/14 04:37:12;;;;;;;;;;;27.70;74.90;;;;;;5067279;28;20294;-74
2022/11/14 04:39:39;;;;;;;;;;;27.70;75.70;;;;;;5066543;28;20046;-75
2022/11/14 04:42:06;;;;;;;;;;;27.70;73.90;;;;;;5065103;28;19927;-74
2022/11/14 04:44:32;;;;;;;;;;;27.50;73.00;;;;;;5061799;28;19925;-75
2022/11/14 04:46:59;;;;;;;;;;;27.80;74.00;;;;;;5073816;28;19923;-75
2022/11/14 04:49:26;;;;;;;;;;;28.20;73.10;;;;;;5071890;28;20232;-77
2022/11/14 04:51:52;;;;;;;;;;;28.40;73.10;;;;;;5074093;28;19913;-75
2022/11/14 04:54:19;;;;;;;;;;;28.60;72.10;;;;;;5071913;28;20018;-77
2022/11/14 04:56:46;;;;;;;;;;;28.70;72.10;;;;;;5065947;28;19917;-74
2022/11/14 04:59:12;;;;;;;;;;;28.70;71.80;;;;;;5067138;28;21604;-77
2022/11/14 05:01:39;;;;;;;;;;;28.20;71.90;;;;;;5063529;28;19929;-77
2022/11/14 05:04:06;;;;;;;;;;;28.30;72.20;;;;;;5067424;28;20405;-79
2022/11/14 05:06:32;;;;;;;;;;;28.50;72.30;;;;;;5068482;28;19935;-78
2022/11/14 05:08:59;;;;;;;;;;;28.80;72.00;;;;;;5073901;28;20302;-76
2022/11/14 05:11:26;;;;;;;;;;;28.30;71.30;;;;;;5072131;28;20397;-74
2022/11/14 05:13:52;;;;;;;;;;;28.30;72.60;;;;;;5066110;28;19913;-76
2022/11/14 05:16:19;;;;;;;;;;;28.10;70.90;;;;;;5066515;28;19913;-75
2022/11/14 05:18:45;;;;;;;;;;;27.70;71.10;;;;;;5067900;28;19921;-74
2022/11/14 05:21:14;;;;;;;;;;;27.30;72.50;;;;;;5065985;28;19924;-75
2022/11/14 05:23:40;;;;;;;;;;;27.40;71.70;;;;;;5062419;28;20838;-72
2022/11/14 05:26:09;;;;;;;;;;;27.30;72.30;;;;;;5045690;28;20309;-73
2022/11/14 05:28:35;;;;;;;;;;;27.40;72.90;;;;;;5066655;28;19916;-74
2022/11/14 05:31:02;;;;;;;;;;;27.40;71.90;;;;;;5063925;28;19920;-73
2022/11/14 05:33:29;;;;;;;;;;;27.20;72.10;;;;;;5066570;28;19995;-76
2022/11/14 05:35:56;;;;;;;;;;;27.00;72.00;;;;;;5065391;28;19924;-76
2022/11/14 05:38:22;;;;;;;;;;;26.80;71.60;;;;;;5067276;28;19920;-75
2022/11/14 05:40:49;;;;;;;;;;;26.60;72.50;;;;;;5066726;28;20332;-75
2022/11/14 05:43:16;;;;;;;;;;;26.60;73.10;;;;;;5059114;28;19916;-77
2022/11/14 05:45:42;;;;;;;;;;;26.60;72.30;;;;;;5065898;28;19916;-73
2022/11/14 05:48:09;;;;;;;;;;;26.50;72.60;;;;;;5065284;28;19960;-75
2022/11/14 05:50:36;;;;;;;;;;;26.70;71.40;;;;;;5064196;28;20357;-75
2022/11/14 05:53:02;;;;;;;;;;;26.80;70.40;;;;;;5065147;28;20361;-77
2022/11/14 05:55:29;;;;;;;;;;;26.90;71.40;;;;;;5063921;28;19913;-76
2022/11/14 05:57:59;;;;;;;;;;;26.90;71.00;;;;;;5065410;28;20263;-76
2022/11/14 06:00:26;;;;;;;;;;;26.70;71.50;;;;;;5065680;28;20019;-77
2022/11/14 06:02:53;;;;;;;;;;;26.80;71.60;;;;;;5065952;28;20404;-76
2022/11/14 06:05:20;;;;;;;;;;;27.00;71.70;;;;;;5068814;28;19916;-75
2022/11/14 06:07:47;;;;;;;;;;;27.10;71.40;;;;;;5065176;28;20057;-75
2022/11/14 06:10:14;;;;;;;;;;;27.30;70.40;;;;;;5064910;28;19966;-76
2022/11/14 06:12:40;;;;;;;;;;;27.10;69.30;;;;;;5064421;28;19931;-77
2022/11/14 06:15:07;;;;;;;;;;;27.00;69.40;;;;;;5065928;28;19935;-77
2022/11/14 06:17:34;;;;;;;;;;;26.80;69.30;;;;;;5065057;28;20011;-77
2022/11/14 06:20:01;;;;;;;;;;;26.60;70.40;;;;;;5064435;28;19952;-74
2022/11/14 06:22:27;;;;;;;;;;;26.60;70.50;;;;;;5066298;28;19960;-74
2022/11/14 06:24:54;;;;;;;;;;;26.60;71.00;;;;;;5062764;28;19962;-79
2022/11/14 06:27:20;;;;;;;;;;;26.50;71.40;;;;;;5066191;28;19912;-77
2022/11/14 06:29:47;;;;;;;;;;;26.50;71.70;;;;;;5066126;28;19923;-76
2022/11/14 06:32:14;;;;;;;;;;;26.40;71.50;;;;;;5069810;28;19921;-76
2022/11/14 06:34:40;;;;;;;;;;;26.40;71.60;;;;;;5064782;28;20382;-76
2022/11/14 06:37:07;;;;;;;;;;;26.40;72.00;;;;;;5065278;28;20035;-74
2022/11/14 06:39:34;;;;;;;;;;;26.40;72.10;;;;;;5063946;28;19916;-77
2022/11/14 06:42:00;;;;;;;;;;;26.50;71.80;;;;;;5065348;28;19920;-77
2022/11/14 06:44:27;;;;;;;;;;;26.30;71.30;;;;;;5067645;28;19912;-77
2022/11/14 06:46:54;;;;;;;;;;;26.20;71.60;;;;;;5067516;28;19913;-76
2022/11/14 06:49:20;;;;;;;;;;;26.30;72.30;;;;;;5070667;28;20321;-77
2022/11/14 06:51:47;;;;;;;;;;;26.30;72.30;;;;;;5068811;28;19912;-78
2022/11/14 06:54:14;;;;;;;;;;;26.30;71.70;;;;;;5062611;28;20223;-75
2022/11/14 06:56:40;;;;;;;;;;;26.20;72.20;;;;;;5056884;28;19921;-75
2022/11/14 06:59:07;;;;;;;;;;;26.20;72.90;;;;;;5065198;28;20350;-74
2022/11/14 07:01:34;;;;;;;;;;;26.20;71.20;;;;;;5063103;28;20371;-75
2022/11/14 07:04:01;;;;;;;;;;;26.20;72.30;;;;;;5062469;28;19928;-76
2022/11/14 07:06:28;;;;;;;;;;;26.20;72.60;;;;;;5061591;28;19920;-72
2022/11/14 07:08:56;;;;;;;;;;;26.10;72.60;;;;;;5062688;28;19978;-74
2022/11/14 07:11:25;;;;;;;;;;;26.10;73.20;;;;;;5065715;28;19913;-77
2022/11/14 07:13:53;;;;;;;;;;;26.00;73.50;;;;;;5065859;28;19917;-75
2022/11/14 07:16:20;;;;;;;;;;;25.90;73.90;;;;;;5064790;28;20402;-76
2022/11/14 07:18:46;;;;;;;;;;;25.90;73.50;;;;;;5059972;28;19916;-75
2022/11/14 07:21:13;;;;;;;;;;;25.70;72.20;;;;;;5067950;28;19928;-76
2022/11/14 07:23:40;;;;;;;;;;;25.50;72.70;;;;;;5062909;28;19919;-76
2022/11/14 07:26:09;;;;;;;;;;;25.40;73.50;;;;;;5071154;28;19927;-74
2022/11/14 07:28:36;;;;;;;;;;;25.30;73.60;;;;;;5065526;28;20363;-76
2022/11/14 07:31:06;;;;;;;;;;;25.20;72.50;;;;;;5070118;28;19958;-74
2022/11/14 07:33:33;;;;;;;;;;;25.10;73.70;;;;;;5071410;28;19995;-72
2022/11/14 07:36:00;;;;;;;;;;;25.10;74.30;;;;;;5067218;28;20294;-75
2022/11/14 07:38:26;;;;;;;;;;;25.10;74.00;;;;;;5069991;28;19998;-74
2022/11/14 07:40:57;;;;;;;;;;;25.10;73.80;;;;;;5067617;28;19917;-75
2022/11/14 07:43:24;;;;;;;;;;;25.10;72.10;;;;;;5067664;28;19917;-76
2022/11/14 07:45:51;;;;;;;;;;;25.10;71.00;;;;;;5070342;28;19913;-74
2022/11/14 07:48:18;;;;;;;;;;;25.00;71.20;;;;;;5066590;28;20003;-75
2022/11/14 07:50:46;;;;;;;;;;;25.00;71.70;;;;;;5069681;28;19920;-74
2022/11/14 07:53:14;;;;;;;;;;;24.80;71.90;;;;;;5067431;28;20663;-74
2022/11/14 07:55:40;;;;;;;;;;;24.70;72.70;;;;;;5070319;28;19920;-75
2022/11/14 07:58:07;;;;;;;;;;;24.50;73.10;;;;;;5066169;28;19924;-76
2022/11/14 08:00:34;;;;;;;;;;;24.30;73.80;;;;;;5069394;28;19919;-76
2022/11/14 08:03:01;;;;;;;;;;;24.20;74.90;;;;;;5069021;28;19916;-76
2022/11/14 08:05:27;;;;;;;;;;;24.10;75.40;;;;;;5069451;28;19916;-75
2022/11/14 08:07:54;;;;;;;;;;;23.90;76.70;;;;;;5062895;28;19971;-75
2022/11/14 08:10:20;;;;;;;;;;;23.80;76.60;;;;;;5065801;28;19917;-75
2022/11/14 08:12:47;;;;;;;;;;;23.70;76.30;;;;;;5074850;28;20155;-76
2022/11/14 08:15:14;;;;;;;;;;;23.60;76.50;;;;;;5073832;28;19913;-75
2022/11/14 08:17:40;;;;;;;;;;;23.50;76.90;;;;;;5075015;28;19916;-74
2022/11/14 08:20:08;;;;;;;;;;;23.30;77.30;;;;;;5069577;28;19952;-76
2022/11/14 08:22:34;;;;;;;;;;;23.20;77.90;;;;;;5069864;28;20370;-76
2022/11/14 08:25:01;;;;;;;;;;;23.00;78.30;;;;;;5069364;28;20007;-75
2022/11/14 08:27:28;;;;;;;;;;;22.90;78.40;;;;;;5068476;28;20466;-76
2022/11/14 08:29:54;;;;;;;;;;;22.80;78.80;;;;;;5070926;28;20329;-76
2022/11/14 08:32:21;;;;;;;;;;;22.70;79.40;;;;;;5071442;28;20350;-76
2022/11/14 08:34:48;;;;;;;;;;;22.50;79.50;;;;;;5067997;28;19963;-75
2022/11/14 08:37:14;;;;;;;;;;;22.40;79.90;;;;;;5066493;28;20004;-75
2022/11/14 08:39:41;;;;;;;;;;;22.40;80.10;;;;;;5073547;28;19916;-75
2022/11/14 08:42:07;;;;;;;;;;;22.20;80.50;;;;;;5073424;28;20333;-75
2022/11/14 08:44:34;;;;;;;;;;;22.20;81.10;;;;;;5069815;28;20270;-76
2022/11/14 08:47:02;;;;;;;;;;;22.10;80.60;;;;;;5075527;28;20385;-74
2022/11/14 08:49:29;;;;;;;;;;;22.10;81.40;;;;;;5063687;28;19936;-74
2022/11/14 08:51:56;;;;;;;;;;;22.00;81.10;;;;;;5064661;28;19995;-74
2022/11/14 08:54:22;;;;;;;;;;;22.00;80.80;;;;;;5057377;28;19939;-73
2022/11/14 08:56:49;;;;;;;;;;;22.00;81.60;;;;;;5072076;28;19948;-74
2022/11/14 08:59:16;;;;;;;;;;;22.00;82.20;;;;;;5072790;28;20321;-75
2022/11/14 09:01:42;;;;;;;;;;;21.90;82.70;;;;;;5068365;28;19924;-75
2022/11/14 09:04:09;;;;;;;;;;;21.80;83.40;;;;;;5073298;28;20390;-75
2022/11/14 09:06:36;;;;;;;;;;;21.80;83.70;;;;;;5072525;28;20006;-76
2022/11/14 09:09:02;;;;;;;;;;;21.70;83.60;;;;;;5074590;28;19924;-75
2022/11/14 09:11:29;;;;;;;;;;;21.70;83.70;;;;;;5072412;28;19935;-75
2022/11/14 09:13:56;;;;;;;;;;;21.60;83.70;;;;;;5055384;28;19909;-75
2022/11/14 09:16:22;;;;;;;;;;;21.50;84.20;;;;;;5068241;28;19928;-75
2022/11/14 09:18:49;;;;;;;;;;;21.40;84.10;;;;;;5064113;28;19920;-74
2022/11/14 09:21:16;;;;;;;;;;;21.40;84.50;;;;;;5068731;28;20378;-75
2022/11/14 09:23:42;;;;;;;;;;;21.30;84.90;;;;;;5061072;28;19913;-75
2022/11/14 09:26:09;;;;;;;;;;;21.30;85.50;;;;;;5072117;28;19999;-76
2022/11/14 09:28:36;;;;;;;;;;;21.20;85.70;;;;;;5059351;28;20351;-75
2022/11/14 09:31:03;;;;;;;;;;;21.10;86.50;;;;;;5067664;28;19913;-75
2022/11/14 09:33:30;;;;;;;;;;;21.00;86.90;;;;;;5063014;28;19916;-75
2022/11/14 09:36:01;;;;;;;;;;;20.90;86.00;;;;;;5061379;28;19999;-74
2022/11/14 09:38:28;;;;;;;;;;;20.90;86.40;;;;;;5062076;28;20538;-72
2022/11/14 09:41:00;;;;;;;;;;;20.80;86.50;;;;;;5072089;28;19920;-74
2022/11/14 09:43:33;;;;;;;;;;;20.80;86.60;;;;;;5064174;28;19919;-74
2022/11/14 09:46:00;;;;;;;;;;;20.70;87.70;;;;;;5066669;28;20427;-73
2022/11/14 09:48:29;;;;;;;;;;;20.70;87.30;;;;;;5068081;28;19959;-74
2022/11/14 09:50:59;;;;;;;;;;;20.60;88.10;;;;;;5068619;28;20578;-74
2022/11/14 09:53:32;;;;;;;;;;;20.60;88.70;;;;;;5072567;28;19935;-75
2022/11/14 09:55:59;;;;;;;;;;;20.50;89.10;;;;;;5070498;28;19955;-74
2022/11/14 09:58:26;;;;;;;;;;;20.40;89.50;;;;;;5057343;28;19916;-74
2022/11/14 10:00:52;;;;;;;;;;;20.30;88.40;;;;;;5066898;28;19967;-76
2022/11/14 10:03:48;;;;;;;;;;;20.30;88.60;;;;;;5066280;28;19952;-74
2022/11/14 10:06:17;;;;;;;;;;;20.30;88.60;;;;;;5049582;28;19920;-75
2022/11/14 10:09:10;;;;;;;;;;;20.30;88.00;;;;;;5069821;28;19970;-74
2022/11/14 10:11:48;;;;;;;;;;;20.30;88.00;;;;;;5036965;28;19927;-73
2022/11/14 10:14:15;;;;;;;;;;;20.30;88.10;;;;;;5058363;28;19920;-75
2022/11/14 10:16:42;;;;;;;;;;;20.30;88.10;;;;;;5065674;28;19963;-74
2022/11/14 10:19:27;;;;;;;;;;;20.20;88.10;;;;;;5069574;28;19920;-73
2022/11/14 10:22:06;;;;;;;;;;;20.30;87.70;;;;;;5070817;28;19974;-74
2022/11/14 10:24:45;;;;;;;;;;;20.30;87.40;;;;;;5063982;28;19927;-75
2022/11/14 10:27:24;;;;;;;;;;;20.40;87.50;;;;;;5070471;28;20268;-74
2022/11/14 10:29:54;;;;;;;;;;;20.50;87.10;;;;;;5058958;28;19999;-74
2022/11/14 10:32:38;;;;;;;;;;;20.40;87.20;;;;;;5071465;28;20259;-77
2022/11/14 10:35:08;;;;;;;;;;;20.40;87.60;;;;;;5069722;28;19920;-73
2022/11/14 10:37:59;;;;;;;;;;;20.40;87.60;;;;;;5061688;28;19955;-76
2022/11/14 10:40:29;;;;;;;;;;;20.50;87.80;;;;;;5061022;28;19913;-75
2022/11/14 10:43:00;;;;;;;;;;;20.40;88.30;;;;;;5066391;28;19921;-76
2022/11/14 10:45:33;;;;;;;;;;;20.40;88.40;;;;;;5065742;28;19920;-76
2022/11/14 10:48:02;;;;;;;;;;;20.30;89.10;;;;;;5062914;28;19919;-76
2022/11/14 10:50:51;;;;;;;;;;;20.20;89.50;;;;;;5071223;28;19955;-75
2022/11/14 10:53:41;;;;;;;;;;;20.20;89.50;;;;;;5066342;28;19921;-76
2022/11/14 10:56:11;;;;;;;;;;;20.20;89.70;;;;;;5052906;28;20369;-76
2022/11/14 10:58:38;;;;;;;;;;;20.20;89.90;;;;;;5070126;28;20253;-75
2022/11/14 11:01:23;;;;;;;;;;;20.20;90.00;;;;;;5059777;28;19924;-75
2022/11/14 11:03:49;;;;;;;;;;;20.20;90.10;;;;;;5068792;28;19966;-75
2022/11/14 11:06:24;;;;;;;;;;;20.10;90.30;;;;;;5069191;28;20312;-74
2022/11/14 11:11:38;;;;;;;;;;;20.10;90.50;;;;;;5063605;28;19962;-76
2022/11/14 11:14:05;;;;;;;;;;;20.00;90.60;;;;;;5070151;28;19935;-76
2022/11/14 11:16:32;;;;;;;;;;;20.00;90.50;;;;;;5057924;28;19913;-75
2022/11/14 11:19:21;;;;;;;;;;;20.00;90.30;;;;;;5066561;28;19921;-75
2022/11/14 11:21:49;;;;;;;;;;;20.10;90.20;;;;;;5063333;28;19931;-75
2022/11/14 11:24:32;;;;;;;;;;;20.10;90.30;;;;;;5069988;28;19912;-74
2022/11/14 11:27:17;;;;;;;;;;;20.20;90.20;;;;;;5052780;28;20083;-74
2022/11/14 11:29:44;;;;;;;;;;;20.10;90.10;;;;;;5067688;28;20252;-74
2022/11/14 11:32:11;;;;;;;;;;;20.10;90.30;;;;;;5065153;28;20386;-75
2022/11/14 11:34:37;;;;;;;;;;;20.10;90.30;;;;;;5057551;28;19916;-74
2022/11/14 11:37:04;;;;;;;;;;;20.00;90.50;;;;;;5062604;28;19947;-75
2022/11/14 11:39:32;;;;;;;;;;;20.00;90.50;;;;;;5061636;28;19959;-73
2022/11/14 11:42:03;;;;;;;;;;;19.90;90.60;;;;;;5068197;28;20314;-75
2022/11/14 11:44:36;;;;;;;;;;;19.90;90.70;;;;;;5069724;28;19917;-76
2022/11/14 11:47:03;;;;;;;;;;;19.90;90.80;;;;;;5063042;28;20382;-75
2022/11/14 11:49:30;;;;;;;;;;;19.80;90.80;;;;;;5070178;28;19966;-74
2022/11/14 11:52:01;;;;;;;;;;;19.80;90.90;;;;;;5069185;28;19999;-74
2022/11/14 11:54:36;;;;;;;;;;;19.80;91.00;;;;;;5070137;28;19917;-75
2022/11/14 11:57:09;;;;;;;;;;;19.70;91.10;;;;;;5058418;28;20369;-74
2022/11/14 11:59:43;;;;;;;;;;;19.60;91.30;;;;;;5053354;28;19924;-76
2022/11/14 12:02:16;;;;;;;;;;;19.50;91.60;;;;;;5070383;28;19932;-75
2022/11/14 12:04:43;;;;;;;;;;;19.40;91.80;;;;;;5070598;28;19924;-75
2022/11/14 12:07:32;;;;;;;;;;;19.40;92.00;;;;;;5070652;28;19924;-75
2022/11/14 12:10:01;;;;;;;;;;;19.30;92.20;;;;;;5060982;28;19943;-76
2022/11/14 12:12:40;;;;;;;;;;;19.20;92.30;;;;;;5064876;28;20287;-74
2022/11/14 12:15:22;;;;;;;;;;;19.20;92.50;;;;;;5061323;28;19913;-74
2022/11/14 12:18:07;;;;;;;;;;;19.20;92.60;;;;;;5065816;28;20047;-75
2022/11/14 12:20:43;;;;;;;;;;;19.10;92.70;;;;;;5069121;28;20019;-74
2022/11/14 12:23:16;;;;;;;;;;;19.10;92.90;;;;;;5066509;28;19939;-75
2022/11/14 12:26:01;;;;;;;;;;;19.00;92.90;;;;;;5065164;28;20375;-74
2022/11/14 12:28:46;;;;;;;;;;;19.00;93.30;;;;;;5070785;28;19917;-75
2022/11/14 12:31:15;;;;;;;;;;;18.90;93.50;;;;;;5064390;28;19948;-75
2022/11/14 12:33:49;;;;;;;;;;;18.80;93.60;;;;;;5062755;28;20262;-75
2022/11/14 12:36:16;;;;;;;;;;;18.70;93.70;;;;;;5067082;28;19938;-74
2022/11/14 12:38:51;;;;;;;;;;;18.70;94.20;;;;;;5065766;28;19912;-75
2022/11/14 12:41:21;;;;;;;;;;;18.60;94.40;;;;;;5068370;28;19948;-74
2022/11/14 12:43:48;;;;;;;;;;;18.50;94.30;;;;;;5065286;28;19920;-76
2022/11/14 12:46:14;;;;;;;;;;;18.40;94.60;;;;;;5066666;28;20605;-75
2022/11/14 12:48:42;;;;;;;;;;;18.30;95.10;;;;;;5055442;28;19953;-74
2022/11/14 12:51:29;;;;;;;;;;;18.20;95.30;;;;;;5057484;28;20332;-75
2022/11/14 12:53:57;;;;;;;;;;;18.10;95.40;;;;;;5058136;28;20023;-77
2022/11/14 12:56:29;;;;;;;;;;;18.00;95.90;;;;;;5062069;28;19958;-75
2022/11/14 12:59:14;;;;;;;;;;;17.90;96.20;;;;;;5067243;28;19912;-75
2022/11/14 13:01:47;;;;;;;;;;;17.80;96.90;;;;;;5068630;28;19924;-73
2022/11/14 13:04:32;;;;;;;;;;;17.80;96.80;;;;;;5068654;28;19917;-73
2022/11/14 13:07:17;;;;;;;;;;;17.70;97.00;;;;;;5067231;28;20001;-74
2022/11/14 13:09:53;;;;;;;;;;;17.70;97.20;;;;;;5057254;28;20378;-73
2022/11/14 13:24:03;;;;;;;;;;;17.50;97.70;;;;;;4996238;28;19918;-73
2022/11/14 13:26:30;;;;;;;;;;;17.40;97.90;;;;;;5052270;28;19912;-78
2022/11/14 13:28:57;;;;;;;;;;;17.40;97.90;;;;;;5072549;28;19917;-78
2022/11/14 13:31:46;;;;;;;;;;;17.30;98.20;;;;;;5069714;28;19913;-77
2022/11/14 13:34:31;;;;;;;;;;;17.20;98.40;;;;;;5055132;28;19917;-77
2022/11/14 13:37:04;;;;;;;;;;;17.10;98.50;;;;;;5064553;28;19921;-71
2022/11/14 13:39:48;;;;;;;;;;;17.00;98.60;;;;;;5066496;28;19917;-76
2022/11/14 13:42:21;;;;;;;;;;;17.00;99.10;;;;;;5058122;28;19935;-77
2022/11/14 13:45:06;;;;;;;;;;;16.90;99.50;;;;;;5065568;28;19940;-82
2022/11/14 13:47:33;;;;;;;;;;;16.80;99.80;;;;;;5059954;28;20390;-75
2022/11/14 13:49:59;;;;;;;;;;;16.80;99.90;;;;;;5070947;28;19916;-70
2022/11/14 13:52:28;;;;;;;;;;;16.70;99.90;;;;;;5072546;28;19936;-73
2022/11/14 13:54:55;;;;;;;;;;;16.60;99.90;;;;;;5068133;28;19920;-77
2022/11/14 13:57:27;;;;;;;;;;;16.60;99.90;;;;;;5071059;28;19998;-76
2022/11/14 13:59:54;;;;;;;;;;;16.60;99.90;;;;;;5064364;28;20045;-76
2022/11/14 14:02:27;;;;;;;;;;;16.60;99.90;;;;;;5063510;28;20001;-77
2022/11/14 14:05:16;;;;;;;;;;;16.60;99.90;;;;;;5070021;28;19924;-76
2022/11/14 14:07:49;;;;;;;;;;;16.60;99.90;;;;;;5059591;28;19912;-72
2022/11/14 14:10:29;;;;;;;;;;;16.50;99.90;;;;;;5060491;28;19924;-76
2022/11/14 14:13:19;;;;;;;;;;;16.50;99.90;;;;;;5069908;28;19912;-77
2022/11/14 14:15:45;;;;;;;;;;;16.50;99.90;;;;;;5059320;28;19909;-75
2022/11/14 14:18:12;;;;;;;;;;;16.40;99.90;;;;;;5071394;28;20271;-77
2022/11/14 14:20:53;;;;;;;;;;;16.50;99.90;;;;;;5070522;28;19966;-72
2022/11/14 14:23:20;;;;;;;;;;;16.50;99.90;;;;;;5066370;28;19920;-78
2022/11/14 14:25:46;;;;;;;;;;;16.60;99.90;;;;;;5068214;28;19916;-77
2022/11/14 14:28:16;;;;;;;;;;;16.60;99.90;;;;;;5072294;28;19969;-77
2022/11/14 14:31:03;;;;;;;;;;;16.60;99.90;;;;;;5071370;28;19947;-78
2022/11/14 14:33:39;;;;;;;;;;;16.60;99.90;;;;;;5050771;28;19975;-76
2022/11/14 14:36:15;;;;;;;;;;;16.60;99.90;;;;;;5071502;28;19981;-76
2022/11/14 14:38:42;;;;;;;;;;;16.50;99.90;;;;;;5065513;28;19913;-75
2022/11/14 14:41:09;;;;;;;;;;;16.50;99.90;;;;;;5061321;28;19921;-77
2022/11/14 14:43:36;;;;;;;;;;;16.40;99.90;;;;;;5059232;28;19961;-78